createdAt,value
2018-11-21T03:56:45.725Z,101160.38
2018-11-21T03:59:15.473Z,101159.52
2018-11-21T04:01:45.291Z,101157.83
2018-11-21T04:04:15.043Z,101167.63
2018-11-21T04:06:44.783Z,101157.41
2018-11-21T04:09:14.582Z,101171.06
2018-11-21T04:11:44.555Z,101167.63
2018-11-21T04:14:14.670Z,101174.48
2018-11-21T04:16:44.595Z,101184.69
2018-11-21T04:19:14.319Z,101181.28
2018-11-21T04:21:44.109Z,101182.98
2018-11-21T04:24:13.864Z,101190.66
2018-11-21T04:26:43.667Z,101192.80
2018-11-21T04:29:13.485Z,101200.88
2018-11-21T04:31:43.212Z,101196.22
2018-11-21T04:34:12.979Z,101198.32
2018-11-21T04:36:42.752Z,101203.84
2018-11-21T04:39:13.107Z,101200.02
2018-11-21T04:41:42.859Z,101204.70
2018-11-21T04:44:13.424Z,101211.12
2018-11-21T04:46:43.518Z,101210.69
2018-11-21T04:49:13.621Z,101217.08
2018-11-21T04:51:43.429Z,101211.12
2018-11-21T04:54:13.210Z,101219.21
2018-11-21T04:56:42.953Z,101226.44
2018-11-21T04:59:13.370Z,101223.86
2018-11-21T05:01:43.121Z,101230.69
2018-11-21T05:04:12.987Z,101237.53
2018-11-21T05:06:42.769Z,101232.83
2018-11-21T05:09:13.076Z,101229.00
2018-11-21T05:11:42.839Z,101230.69
2018-11-21T05:14:12.603Z,101234.53
2018-11-21T05:16:42.414Z,101239.66
2018-11-21T05:19:12.183Z,101243.89
2018-11-21T05:21:41.939Z,101242.17
2018-11-21T05:24:11.876Z,101246.87
2018-11-21T05:26:41.630Z,101241.76
2018-11-21T05:29:14.295Z,101246.90
2018-11-21T05:31:41.861Z,101247.75
2018-11-21T05:34:11.644Z,101246.89
2018-11-21T05:36:42.158Z,101253.70
2018-11-21T05:39:12.780Z,101259.27
2018-11-21T05:41:42.606Z,101257.95
2018-11-21T05:44:12.405Z,101262.64
2018-11-21T05:46:42.248Z,101272.44
2018-11-21T05:49:12.019Z,101270.33
2018-11-21T05:51:42.276Z,101272.01
2018-11-21T05:54:12.066Z,101271.16
2018-11-21T05:56:41.794Z,101280.55
2018-11-21T05:59:11.938Z,101279.69
2018-11-21T06:01:41.702Z,101279.70
2018-11-21T06:04:11.488Z,101283.92
2018-11-21T06:06:41.305Z,101287.36
2018-11-21T06:09:12.632Z,101287.78
2018-11-21T06:11:43.010Z,101297.16
2018-11-21T06:14:13.301Z,101297.58
2018-11-21T06:16:43.044Z,101300.98
2018-11-21T06:19:13.383Z,101303.56
2018-11-21T06:21:43.141Z,101312.52
2018-11-21T06:24:13.284Z,101306.95
2018-11-21T06:26:43.065Z,101311.66
2018-11-21T06:29:12.814Z,101309.94
2018-11-21T06:31:42.593Z,101319.31
2018-11-21T06:34:12.361Z,101316.35
2018-11-21T06:36:42.066Z,101315.49
2018-11-21T06:39:11.968Z,101315.91
2018-11-21T06:41:41.730Z,101324.43
2018-11-21T06:44:12.065Z,101332.94
2018-11-21T06:46:42.141Z,101325.27
2018-11-21T06:49:12.381Z,101332.95
2018-11-21T06:51:42.179Z,101335.92
2018-11-21T06:54:13.350Z,101340.19
2018-11-21T06:56:43.327Z,101347.02
2018-11-21T06:59:13.157Z,101355.52
2018-11-21T07:01:43.236Z,101354.69
2018-11-21T07:04:13.056Z,101354.66
2018-11-21T07:06:42.795Z,101361.48
2018-11-21T07:09:13.142Z,101361.90
2018-11-21T07:11:43.031Z,101367.88
2018-11-21T07:14:12.777Z,101369.16
2018-11-21T07:16:42.976Z,101370.44
2018-11-21T07:19:12.732Z,101374.27
2018-11-21T07:21:42.474Z,101381.53
2018-11-21T07:24:12.272Z,101388.33
2018-11-21T07:26:42.025Z,101381.07
2018-11-21T07:29:11.780Z,101379.80
2018-11-21T07:31:41.598Z,101382.37
2018-11-21T07:34:11.403Z,101387.91
2018-11-21T07:36:48.760Z,101390.89
2018-11-21T07:39:18.965Z,101387.08
2018-11-21T07:41:48.726Z,101393.47
2018-11-21T07:44:19.385Z,101389.20
2018-11-21T07:46:49.192Z,101386.23
2018-11-21T07:49:18.966Z,101390.48
2018-11-21T07:51:48.722Z,101389.20
2018-11-21T07:54:18.528Z,101399.85
2018-11-21T07:57:32.155Z,101398.59
2018-11-21T08:01:10.664Z,101400.29
2018-11-21T08:03:42.520Z,101403.27
2018-11-21T08:06:18.082Z,101408.38
2018-11-21T08:09:06.803Z,101412.23
2018-11-21T08:11:53.873Z,101410.53
2018-11-21T08:15:00.708Z,101409.66
2018-11-21T08:18:04.373Z,101419.03
2018-11-21T08:20:51.712Z,101421.17
2018-11-21T08:23:42.613Z,101421.61
2018-11-21T08:26:43.262Z,101429.70
2018-11-21T08:29:13.425Z,101430.56
2018-11-21T08:31:43.205Z,101419.89
2018-11-21T08:34:13.012Z,101420.75
2018-11-21T08:36:42.802Z,101415.61
2018-11-21T08:39:12.532Z,101415.61
2018-11-21T08:41:42.338Z,101419.87
2018-11-21T08:44:12.127Z,101421.16
2018-11-21T08:46:41.951Z,101420.75
2018-11-21T08:49:11.708Z,101425.42
2018-11-21T08:51:41.471Z,101417.33
2018-11-21T08:54:11.340Z,101427.58
2018-11-21T08:56:41.120Z,101430.98
2018-11-21T08:59:10.952Z,101434.38
2018-11-21T09:01:40.724Z,101433.95
2018-11-21T09:04:10.493Z,101442.05
2018-11-21T09:06:41.259Z,101433.13
2018-11-21T09:09:11.761Z,101433.09
2018-11-21T09:11:41.516Z,101441.17
2018-11-21T09:14:11.323Z,101438.63
2018-11-21T09:16:41.210Z,101442.02
2018-11-21T09:19:10.955Z,101445.80
2018-11-21T09:21:40.745Z,101444.95
2018-11-21T09:24:11.681Z,101437.25
2018-11-21T09:26:41.425Z,101445.41
2018-11-21T09:29:11.208Z,101448.86
2018-11-21T09:31:40.967Z,101448.86
2018-11-21T09:34:10.723Z,101471.48
2018-11-21T09:36:40.667Z,101464.22
2018-11-21T09:39:12.127Z,101465.88
2018-11-21T09:41:41.911Z,101462.05
2018-11-21T09:44:11.760Z,101459.44
2018-11-21T09:46:41.531Z,101463.77
2018-11-21T09:49:11.355Z,101474.46
2018-11-21T09:51:41.140Z,101482.98
2018-11-21T09:54:10.895Z,101473.14
2018-11-21T09:56:40.696Z,101482.92
2018-11-21T09:59:13.568Z,101491.42
2018-11-21T10:02:37.483Z,101487.66
2018-11-21T10:05:07.510Z,101479.07
2018-11-21T10:07:43.827Z,101496.62
2018-11-21T10:10:13.589Z,101496.62
2018-11-21T10:12:43.344Z,101491.89
2018-11-21T10:15:13.123Z,101494.85
2018-11-21T10:17:42.884Z,101495.30
2018-11-21T10:20:12.974Z,101482.89
2018-11-21T10:22:42.739Z,101483.77
2018-11-21T10:25:12.540Z,101485.47
2018-11-21T10:27:42.537Z,101490.22
2018-11-21T10:30:12.279Z,101487.20
2018-11-21T10:32:42.035Z,101488.01
2018-11-21T10:35:12.167Z,101487.17
2018-11-21T10:37:41.989Z,101484.60
2018-11-21T10:40:11.755Z,101496.17
2018-11-21T10:42:41.729Z,101501.74
2018-11-21T10:45:11.583Z,101491.08
2018-11-21T10:47:41.337Z,101492.80
2018-11-21T10:50:11.136Z,101490.24
2018-11-21T10:52:40.879Z,101492.39
2018-11-21T10:55:10.801Z,101484.70
2018-11-21T10:57:40.563Z,101503.91
2018-11-21T11:00:29.977Z,101491.08
2018-11-21T11:03:06.621Z,101502.58
2018-11-21T11:05:55.481Z,101503.44
2018-11-21T11:08:42.383Z,101489.83
2018-11-21T11:11:29.751Z,101499.19
2018-11-21T11:14:21.364Z,101489.38
2018-11-21T11:17:07.974Z,101500.05
2018-11-21T11:19:47.532Z,101498.73
2018-11-21T11:22:39.199Z,101505.16
2018-11-21T11:25:27.936Z,101499.64
2018-11-21T11:28:18.518Z,101506.89
2018-11-21T11:31:21.987Z,101508.59
2018-11-21T11:34:10.750Z,101506.88
2018-11-21T11:37:08.313Z,101504.29
2018-11-21T11:39:59.242Z,101513.69
2018-11-21T11:42:46.687Z,101516.27
2018-11-21T11:45:50.199Z,101517.97
2018-11-21T11:48:37.236Z,101514.55
2018-11-21T11:51:24.539Z,101520.10
2018-11-21T11:54:18.929Z,101516.26
2018-11-21T11:57:25.636Z,101519.64
2018-11-21T12:00:12.835Z,101526.51
2018-11-21T12:03:00.219Z,101532.05
2018-11-21T12:05:44.959Z,101527.36
2018-11-21T12:08:32.140Z,101522.66
2018-11-21T12:11:32.880Z,101525.61
2018-11-21T12:14:36.712Z,101517.55
2018-11-21T12:17:24.184Z,101520.12
2018-11-21T12:20:13.433Z,101520.52
2018-11-21T12:22:58.879Z,101518.41
2018-11-21T12:25:56.556Z,101521.37
2018-11-21T12:28:43.458Z,101523.94
2018-11-21T12:31:26.091Z,101521.78
2018-11-21T12:34:13.206Z,101526.92
2018-11-21T12:37:10.942Z,101546.98
2018-11-21T12:40:11.349Z,101526.06
2018-11-21T12:42:58.693Z,101531.17
2018-11-21T12:46:02.538Z,101521.80
2018-11-21T12:48:50.293Z,101527.75
2018-11-21T12:51:37.655Z,101528.20
2018-11-21T12:54:24.025Z,101525.20
2018-11-21T12:57:24.984Z,101526.48
2018-11-21T13:00:13.773Z,101532.47
2018-11-21T13:02:52.814Z,101535.47
2018-11-21T13:05:41.364Z,101533.30
2018-11-21T13:08:21.247Z,101525.66
2018-11-21T13:11:06.920Z,101522.69
2018-11-21T13:14:07.570Z,101521.37
2018-11-21T13:16:54.509Z,101516.25
2018-11-21T13:19:49.145Z,101520.50
2018-11-21T13:22:30.140Z,101521.83
2018-11-21T13:25:17.448Z,101520.53
2018-11-21T13:28:04.847Z,101529.07
2018-11-21T13:31:02.605Z,101529.06
2018-11-21T13:33:51.363Z,101527.75
2018-11-21T13:36:36.431Z,101522.20
2018-11-21T13:39:31.117Z,101523.50
2018-11-21T13:42:18.176Z,101522.65
2018-11-21T13:45:05.618Z,101522.69
2018-11-21T13:47:52.301Z,101524.80
2018-11-21T13:50:56.287Z,101526.08
2018-11-21T13:54:00.619Z,101532.48
2018-11-21T13:56:30.581Z,101531.20
2018-11-21T13:59:00.368Z,101538.02
2018-11-21T14:01:30.588Z,101532.91
2018-11-21T14:04:00.423Z,101541.02
2018-11-21T14:06:30.213Z,101554.23
2018-11-21T14:09:00.014Z,101545.72
2018-11-21T14:11:32.851Z,101539.75
2018-11-21T14:14:02.655Z,101543.14
2018-11-21T14:16:32.447Z,101539.30
2018-11-21T14:19:02.257Z,101535.45
2018-11-21T14:21:32.281Z,101539.31
2018-11-21T14:24:02.503Z,101536.33
2018-11-21T14:26:32.265Z,101539.74
2018-11-21T14:29:02.038Z,101544.02
2018-11-21T14:31:31.784Z,101547.41
2018-11-21T14:34:01.697Z,101547.42
2018-11-21T14:36:31.460Z,101538.05
2018-11-21T14:39:01.243Z,101545.30
2018-11-21T14:41:31.013Z,101546.55
2018-11-21T14:44:00.906Z,101541.86
2018-11-21T14:46:30.699Z,101546.98
2018-11-21T14:49:00.591Z,101546.16
2018-11-21T14:51:30.343Z,101544.00
2018-11-21T14:54:00.115Z,101555.10
2018-11-21T14:56:29.859Z,101552.12
2018-11-21T14:58:59.688Z,101551.69
2018-11-21T15:01:29.444Z,101556.40
2018-11-21T15:03:59.187Z,101552.97
2018-11-21T15:06:28.977Z,101558.09
2018-11-21T15:08:58.756Z,101553.81
2018-11-21T15:11:28.566Z,101560.64
2018-11-21T15:13:59.188Z,101556.40
2018-11-21T15:16:28.931Z,101562.34
2018-11-21T15:18:58.742Z,101558.94
2018-11-21T15:21:28.516Z,101556.82
2018-11-21T15:23:58.367Z,101556.38
2018-11-21T15:26:28.115Z,101563.20
2018-11-21T15:28:57.889Z,101567.89
2018-11-21T15:31:27.818Z,101558.52
2018-11-21T15:33:57.564Z,101563.65
2018-11-21T15:36:27.435Z,101566.63
2018-11-21T15:38:57.523Z,101568.33
2018-11-21T15:41:27.261Z,101571.32
2018-11-21T15:43:57.054Z,101569.59
2018-11-21T15:46:26.991Z,101578.12
2018-11-21T15:48:57.128Z,101582.84
2018-11-21T15:51:27.355Z,101576.88
2018-11-21T15:53:57.106Z,101582.84
2018-11-21T15:56:26.890Z,101576.43
2018-11-21T15:58:56.963Z,101584.53
2018-11-21T16:01:26.770Z,101584.10
2018-11-21T16:03:56.542Z,101587.08
2018-11-21T16:06:26.530Z,101593.92
2018-11-21T16:08:56.591Z,101584.95
2018-11-21T16:11:26.349Z,101593.94
2018-11-21T16:13:57.003Z,101600.30
2018-11-21T16:16:26.731Z,101594.77
2018-11-21T16:18:56.536Z,101597.33
2018-11-21T16:21:26.268Z,101596.89
2018-11-21T16:23:56.060Z,101600.75
2018-11-21T16:26:25.820Z,101602.45
2018-11-21T16:28:55.581Z,101612.66
2018-11-21T16:31:25.389Z,101610.09
2018-11-21T16:33:55.152Z,101613.94
2018-11-21T16:36:27.184Z,101613.90
2018-11-21T16:38:54.940Z,101618.20
2018-11-21T16:41:24.683Z,101617.30
2018-11-21T16:43:54.631Z,101624.57
2018-11-21T16:46:24.381Z,101630.56
2018-11-21T16:48:54.520Z,101628.01
2018-11-21T16:51:24.265Z,101635.20
2018-11-21T16:53:54.110Z,101629.66
2018-11-21T16:56:23.946Z,101632.28
2018-11-21T16:58:53.651Z,101630.97
2018-11-21T17:01:23.534Z,101633.09
2018-11-21T17:03:53.272Z,101646.77
2018-11-21T17:06:23.694Z,101645.48
2018-11-21T17:08:53.810Z,101639.48
2018-11-21T17:11:23.569Z,101642.05
2018-11-21T17:13:53.592Z,101640.80
2018-11-21T17:16:23.523Z,101643.32
2018-11-21T17:18:53.754Z,101649.27
2018-11-21T17:21:23.564Z,101652.31
2018-11-21T17:23:53.393Z,101650.95
2018-11-21T17:26:23.211Z,101650.99
2018-11-21T17:28:53.327Z,101656.08
2018-11-21T17:31:23.699Z,101662.91
2018-11-21T17:33:53.944Z,101656.86
2018-11-21T17:36:23.749Z,101656.07
2018-11-21T17:38:53.686Z,101656.51
2018-11-21T17:41:23.573Z,101661.19
2018-11-21T17:43:53.325Z,101662.80
2018-11-21T17:46:23.118Z,101662.41
2018-11-21T17:48:53.249Z,101668.75
2018-11-21T17:51:26.585Z,101666.12
2018-11-21T17:53:52.809Z,101661.02
2018-11-21T17:56:22.633Z,101661.00
2018-11-21T17:58:52.826Z,101666.19
2018-11-21T18:01:22.600Z,101658.91
2018-11-21T18:03:52.401Z,101664.08
2018-11-21T18:06:22.591Z,101668.69
2018-11-21T18:08:52.789Z,101665.74
2018-11-21T18:11:22.905Z,101668.30
2018-11-21T18:13:52.764Z,101668.22
2018-11-21T18:16:22.903Z,101671.63
2018-11-21T18:18:52.813Z,101677.19
2018-11-21T18:21:22.578Z,101671.69
2018-11-21T18:23:52.991Z,101675.84
2018-11-21T18:26:22.736Z,101676.28
2018-11-21T18:28:52.723Z,101680.58
2018-11-21T18:31:22.489Z,101684.78
2018-11-21T18:33:52.362Z,101680.62
2018-11-21T18:36:22.170Z,101678.53
2018-11-21T18:38:52.143Z,101676.70
2018-11-21T18:41:22.341Z,101684.02
2018-11-21T18:43:53.112Z,101684.02
2018-11-21T18:46:23.302Z,101684.86
2018-11-21T18:48:53.075Z,101688.61
2018-11-21T18:51:23.184Z,101692.97
2018-11-21T18:53:54.874Z,101692.05
2018-11-21T18:56:49.607Z,101700.91
2018-11-21T18:59:49.241Z,101699.20
2018-11-21T19:02:19.051Z,101698.84
2018-11-21T19:04:48.973Z,101708.15
2018-11-21T19:07:18.755Z,101699.29
2018-11-21T19:09:48.562Z,101696.34
2018-11-21T19:12:18.692Z,101701.32
